Time;durP1;ratioP1;P1;durP2;ratioP2;P2;SDS_P1;SDS_P2;PMS_P1;PMS_P2;Temp;Humidity;BMP_temperature;BMP_pressure;BME280_temperature;BME280_humidity;BME280_pressure;Samples;Min_cycle;Max_cycle;Signal;HPM_P1;HPM_P2
2023/05/30 00:00:58;;;;;;;4.10;3.80;;;;;;;12.24;100.00;97227.09;5070068;28;20815;-64
2023/05/30 00:03:26;;;;;;;3.93;3.60;;;;;;;12.20;100.00;97228.50;5052477;28;20237;-64
2023/05/30 00:05:53;;;;;;;4.33;3.90;;;;;;;12.26;100.00;97232.19;5067897;27;20516;-64
2023/05/30 00:08:22;;;;;;;6.03;3.80;;;;;;;12.22;100.00;97231.78;5070297;28;20677;-63
2023/05/30 00:10:50;;;;;;;6.47;3.80;;;;;;;12.14;100.00;97224.78;5063325;28;20458;-61
2023/05/30 00:13:20;;;;;;;5.33;4.30;;;;;;;12.19;100.00;97234.81;5022765;28;21155;-65
2023/05/30 00:15:48;;;;;;;5.00;4.10;;;;;;;12.18;100.00;97235.00;5067010;28;20435;-66
2023/05/30 00:18:15;;;;;;;4.30;4.00;;;;;;;12.25;100.00;97234.03;5051329;28;20209;-66
2023/05/30 00:20:44;;;;;;;4.63;4.23;;;;;;;12.19;100.00;97239.31;5065488;28;20293;-63
2023/05/30 00:23:12;;;;;;;3.90;3.60;;;;;;;12.18;100.00;97241.16;5063134;27;20332;-65
2023/05/30 00:25:40;;;;;;;4.20;3.80;;;;;;;12.07;100.00;97213.28;5066299;27;20386;-65
2023/05/30 00:28:08;;;;;;;4.00;3.70;;;;;;;12.21;100.00;97234.63;5020968;28;20312;-66
2023/05/30 00:30:37;;;;;;;4.67;4.10;;;;;;;12.23;100.00;97238.72;5072222;28;20216;-65
2023/05/30 00:33:05;;;;;;;4.60;3.97;;;;;;;12.28;100.00;97235.47;5068410;28;20238;-66
2023/05/30 00:35:33;;;;;;;4.50;4.10;;;;;;;12.24;100.00;97234.22;5052120;27;20214;-63
2023/05/30 00:38:00;;;;;;;4.07;3.73;;;;;;;12.21;100.00;97235.44;5059825;27;20229;-65
2023/05/30 00:40:28;;;;;;;4.70;4.30;;;;;;;12.26;100.00;97234.84;5066513;27;20202;-64
2023/05/30 00:42:56;;;;;;;6.10;4.50;;;;;;;12.27;100.00;97234.69;5066815;28;20870;-65
2023/05/30 00:45:24;;;;;;;4.47;4.07;;;;;;;12.27;100.00;97237.34;5018028;27;20305;-64
2023/05/30 00:47:53;;;;;;;5.67;4.57;;;;;;;12.27;100.00;97225.88;5068391;27;20505;-66
2023/05/30 00:50:21;;;;;;;4.93;4.43;;;;;;;12.30;100.00;97233.44;5054026;27;20291;-64
2023/05/30 00:52:50;;;;;;;4.57;4.17;;;;;;;12.34;100.00;97229.41;5063269;27;20217;-64
2023/05/30 00:55:18;;;;;;;5.53;4.77;;;;;;;12.30;100.00;97233.44;5068517;27;20221;-66
2023/05/30 00:57:46;;;;;;;4.53;3.93;;;;;;;12.26;100.00;97226.88;5072016;28;20202;-65
2023/05/30 01:00:15;;;;;;;5.00;4.60;;;;;;;12.26;100.00;97227.72;5023722;27;20209;-64
2023/05/30 01:02:44;;;;;;;4.47;4.17;;;;;;;12.25;100.00;97230.56;5065886;28;20575;-65
2023/05/30 01:05:14;;;;;;;4.77;4.47;;;;;;;12.13;100.00;97220.47;5045344;27;20205;-64
2023/05/30 01:07:44;;;;;;;5.23;4.37;;;;;;;12.17;100.00;97231.53;5061439;28;20198;-64
2023/05/30 01:10:12;;;;;;;4.87;4.47;;;;;;;12.20;100.00;97227.66;5061322;28;20259;-64
2023/05/30 01:12:43;;;;;;;4.27;3.97;;;;;;;12.13;100.00;97224.97;5068011;28;20802;-65
2023/05/30 01:15:14;;;;;;;4.20;3.90;;;;;;;12.13;100.00;97219.66;5021040;27;20421;-66
2023/05/30 01:17:49;;;;;;;4.80;4.50;;;;;;;12.06;100.00;97221.41;5064992;28;20283;-66
2023/05/30 01:20:20;;;;;;;4.93;4.40;;;;;;;11.98;100.00;97215.22;5046933;28;20210;-65
2023/05/30 01:23:08;;;;;;;5.33;4.33;;;;;;;11.92;100.00;97213.34;5063966;28;20240;-60
2023/05/30 01:25:46;;;;;;;5.70;4.67;;;;;;;11.97;100.00;97223.38;5061705;28;20218;-64
2023/05/30 01:28:21;;;;;;;4.23;3.90;;;;;;;11.93;100.00;97220.28;5067908;28;20223;-65
2023/05/30 01:30:50;;;;;;;4.93;4.57;;;;;;;11.85;100.00;97221.22;5019822;27;20605;-63
2023/05/30 01:33:19;;;;;;;5.40;4.87;;;;;;;11.78;100.00;97216.91;5068310;28;20271;-66
2023/05/30 01:35:48;;;;;;;4.77;4.37;;;;;;;11.61;100.00;97201.22;5040385;28;20991;-65
2023/05/30 01:38:16;;;;;;;4.20;3.83;;;;;;;11.66;100.00;97200.66;5037599;28;20236;-64
2023/05/30 01:40:47;;;;;;;5.00;4.40;;;;;;;11.66;100.00;97214.72;5038444;28;20215;-65
2023/05/30 01:43:27;;;;;;;4.87;4.40;;;;;;;11.64;100.00;97208.78;5071654;28;20316;-65
2023/05/30 01:45:59;;;;;;;5.07;4.57;;;;;;;11.50;100.00;97207.84;5073962;27;20328;-66
2023/05/30 01:48:34;;;;;;;5.23;4.67;;;;;;;11.54;100.00;97208.31;5039548;28;20214;-65
2023/05/30 01:51:03;;;;;;;4.60;4.27;;;;;;;11.48;100.00;97204.56;5060060;28;20203;-64
2023/05/30 01:53:32;;;;;;;7.07;5.10;;;;;;;11.43;100.00;97213.09;5043034;28;20236;-64
2023/05/30 01:56:01;;;;;;;4.93;4.47;;;;;;;11.38;100.00;97199.59;5061642;28;20278;-65
2023/05/30 01:58:31;;;;;;;5.33;4.40;;;;;;;11.34;100.00;97205.44;5065197;28;20267;-64
2023/05/30 02:00:59;;;;;;;4.87;4.43;;;;;;;11.27;100.00;97208.03;5068043;28;20232;-65
2023/05/30 02:03:29;;;;;;;4.67;4.27;;;;;;;11.22;100.00;97205.94;5031946;27;20234;-65
2023/05/30 02:05:57;;;;;;;5.97;4.47;;;;;;;11.17;100.00;97205.66;5071340;27;20209;-64
2023/05/30 02:08:24;;;;;;;5.33;4.47;;;;;;;11.18;100.00;97212.63;5044784;28;21009;-64
2023/05/30 02:10:52;;;;;;;4.87;4.47;;;;;;;11.17;100.00;97215.47;5062462;28;20198;-64
2023/05/30 02:13:20;;;;;;;4.93;4.53;;;;;;;11.07;100.00;97205.16;5068853;28;20245;-65
2023/05/30 02:15:49;;;;;;;4.90;4.50;;;;;;;11.03;100.00;97202.06;5063703;28;20713;-66
2023/05/30 02:18:17;;;;;;;7.53;4.50;;;;;;;11.00;100.00;97203.25;5061292;28;20205;-65
2023/05/30 02:20:45;;;;;;;4.80;4.27;;;;;;;10.99;100.00;97200.81;5045686;28;20283;-66
2023/05/30 02:23:13;;;;;;;5.43;4.10;;;;;;;11.01;100.00;97201.44;5046175;28;20221;-65
2023/05/30 02:25:40;;;;;;;6.57;4.60;;;;;;;10.73;100.00;97183.56;5056573;28;20225;-66
2023/05/30 02:28:08;;;;;;;4.43;4.03;;;;;;;10.94;100.00;97205.81;5074598;28;20346;-65
2023/05/30 02:30:35;;;;;;;5.30;4.80;;;;;;;10.91;100.00;97198.22;5060865;28;20222;-64
2023/05/30 02:33:05;;;;;;;5.23;4.87;;;;;;;10.86;100.00;97204.09;5067805;28;20284;-65
2023/05/30 02:35:33;;;;;;;5.33;4.57;;;;;;;10.81;100.00;97198.53;5030852;28;20260;-67
2023/05/30 02:38:00;;;;;;;4.37;4.07;;;;;;;10.81;100.00;97199.34;5059150;28;20628;-65
2023/05/30 02:40:28;;;;;;;4.73;4.43;;;;;;;10.81;100.00;97199.34;5045073;28;20206;-64
2023/05/30 02:42:56;;;;;;;5.30;4.90;;;;;;;10.84;100.00;97196.31;5067270;28;20794;-65
2023/05/30 02:45:28;;;;;;;4.93;4.20;;;;;;;10.78;100.00;97201.53;5069987;28;20282;-64
2023/05/30 02:47:56;;;;;;;5.13;4.67;;;;;;;10.78;100.00;97210.31;5071204;28;20361;-67
2023/05/30 02:50:25;;;;;;;5.30;4.80;;;;;;;10.60;100.00;97176.25;5011143;28;20659;-64
2023/05/30 02:52:53;;;;;;;5.33;4.83;;;;;;;10.78;100.00;97206.84;5066001;27;20226;-66
2023/05/30 02:55:20;;;;;;;5.13;4.63;;;;;;;10.59;100.00;97194.97;5052320;27;20582;-65
2023/05/30 02:57:48;;;;;;;5.57;4.80;;;;;;;10.77;100.00;97218.44;5071088;27;20426;-64
2023/05/30 03:00:17;;;;;;;5.30;4.63;;;;;;;10.64;100.00;97205.88;5077080;27;20799;-65
2023/05/30 03:02:46;;;;;;;5.23;4.73;;;;;;;10.73;100.00;97223.31;5074193;27;20290;-64
2023/05/30 03:05:14;;;;;;;5.27;4.83;;;;;;;10.72;100.00;97224.31;5069998;27;20853;-64
2023/05/30 03:07:43;;;;;;;5.10;4.70;;;;;;;10.69;100.00;97222.03;5011680;28;20397;-66
2023/05/30 03:10:11;;;;;;;5.40;4.90;;;;;;;10.76;100.00;97225.59;5044849;27;20229;-64
2023/05/30 03:12:38;;;;;;;4.63;4.23;;;;;;;10.66;100.00;97225.88;5067059;27;20389;-64
2023/05/30 03:15:09;;;;;;;6.40;4.90;;;;;;;10.73;100.00;97225.97;5074701;27;20507;-64
2023/05/30 03:17:38;;;;;;;5.33;4.87;;;;;;;10.74;100.00;97229.41;5070098;28;20201;-63
2023/05/30 03:20:08;;;;;;;5.50;4.57;;;;;;;10.74;100.00;97226.75;5068567;27;20204;-64
2023/05/30 03:22:36;;;;;;;5.40;4.57;;;;;;;10.74;100.00;97224.13;5016730;27;20233;-64
2023/05/30 03:25:06;;;;;;;5.20;4.80;;;;;;;10.56;100.00;97194.34;5048499;27;20350;-64
2023/05/30 03:27:34;;;;;;;5.37;4.87;;;;;;;10.71;100.00;97215.53;5063011;27;20204;-63
2023/05/30 03:30:03;;;;;;;6.17;4.70;;;;;;;10.67;100.00;97219.56;5069798;27;20745;-64
2023/05/30 03:32:31;;;;;;;7.07;5.40;;;;;;;10.70;100.00;97226.31;5066509;27;20275;-65
2023/05/30 03:34:59;;;;;;;6.03;5.20;;;;;;;10.65;100.00;97224.22;5067601;27;20216;-62
2023/05/30 03:37:26;;;;;;;5.30;4.80;;;;;;;10.64;100.00;97230.53;5014598;27;21578;-63
2023/05/30 03:39:55;;;;;;;6.90;5.20;;;;;;;10.64;100.00;97233.16;5041950;27;20308;-63
2023/05/30 03:42:24;;;;;;;6.23;5.50;;;;;;;10.63;100.00;97226.22;5046663;27;20333;-63
2023/05/30 03:44:52;;;;;;;5.53;4.93;;;;;;;10.68;100.00;97236.28;5076773;27;20224;-63
2023/05/30 03:47:19;;;;;;;4.87;4.40;;;;;;;10.66;100.00;97236.47;5055998;27;20305;-61
2023/05/30 03:49:48;;;;;;;5.10;4.70;;;;;;;10.67;100.00;97234.66;5070112;27;20370;-65
2023/05/30 03:52:16;;;;;;;5.53;5.03;;;;;;;10.69;100.00;97228.16;5013607;27;20525;-64
2023/05/30 03:54:44;;;;;;;5.80;4.70;;;;;;;10.76;100.00;97230.88;5047412;27;20773;-63
2023/05/30 03:57:12;;;;;;;5.97;5.00;;;;;;;10.81;100.00;97233.00;5045090;27;20220;-65
2023/05/30 03:59:41;;;;;;;5.93;5.13;;;;;;;10.91;100.00;97246.78;5068819;27;20264;-61
2023/05/30 04:02:09;;;;;;;5.73;5.23;;;;;;;11.03;100.00;97239.19;5075645;27;20213;-64
2023/05/30 04:04:37;;;;;;;5.30;4.90;;;;;;;11.17;100.00;97231.38;5072589;27;20371;-63
2023/05/30 04:07:06;;;;;;;5.70;5.20;;;;;;;11.23;100.00;97234.13;5014198;27;20665;-63
2023/05/30 04:09:33;;;;;;;6.53;5.23;;;;;;;11.29;100.00;97225.41;5068918;27;20235;-62
2023/05/30 04:12:02;;;;;;;5.77;4.73;;;;;;;11.38;100.00;97236.72;5040103;28;21320;-63
2023/05/30 04:14:29;;;;;;;6.00;5.17;;;;;;;11.40;100.00;97237.34;5072525;28;20231;-64
2023/05/30 04:16:58;;;;;;;5.10;4.57;;;;;;;11.50;100.00;97230.91;5066236;27;20404;-63
2023/05/30 04:19:26;;;;;;;4.87;4.47;;;;;;;11.53;100.00;97233.19;5076255;28;20833;-63
2023/05/30 04:21:54;;;;;;;6.10;5.07;;;;;;;11.59;100.00;97237.75;5017345;27;20771;-60
2023/05/30 04:24:22;;;;;;;5.37;4.87;;;;;;;11.54;100.00;97234.84;5051612;27;20233;-65
2023/05/30 04:26:50;;;;;;;6.87;5.60;;;;;;;11.60;100.00;97236.72;5050816;27;20693;-63
2023/05/30 04:29:20;;;;;;;5.17;4.67;;;;;;;11.69;100.00;97240.09;5075567;27;20316;-65
2023/05/30 04:31:48;;;;;;;5.63;5.03;;;;;;;11.72;100.00;97251.13;5069128;27;20917;-64
2023/05/30 04:34:18;;;;;;;5.70;5.10;;;;;;;11.76;100.00;97251.59;5072930;27;20237;-63
2023/05/30 04:36:46;;;;;;;6.57;5.30;;;;;;;11.85;100.00;97252.28;5063882;28;20214;-63
2023/05/30 04:39:14;;;;;;;5.77;5.27;;;;;;;11.83;100.00;97239.19;5017882;27;20251;-63
2023/05/30 04:41:42;;;;;;;5.37;4.90;;;;;;;12.04;100.00;97258.81;5066853;28;20206;-62
2023/05/30 04:44:10;;;;;;;5.90;5.30;;;;;;;12.18;100.00;97253.59;5050688;27;20343;-65
2023/05/30 04:46:37;;;;;;;6.00;5.17;;;;;;;12.35;100.00;97256.78;5073286;27;20666;-63
2023/05/30 04:49:06;;;;;;;7.83;4.90;;;;;;;12.51;100.00;97253.84;5066317;27;20295;-67
2023/05/30 04:51:37;;;;;;;9.60;5.00;;;;;;;12.84;100.00;97247.88;5067390;27;20210;-63
2023/05/30 04:54:05;;;;;;;5.80;5.00;;;;;;;12.96;100.00;97260.63;5012311;27;20798;-65
2023/05/30 04:56:32;;;;;;;4.87;4.47;;;;;;;13.07;100.00;97260.06;5065269;27;20211;-62
2023/05/30 04:59:00;;;;;;;4.83;4.43;;;;;;;13.07;100.00;97260.06;5050442;27;20303;-64
2023/05/30 05:01:28;;;;;;;5.67;5.07;;;;;;;13.31;100.00;97264.03;5075661;27;20209;-64
2023/05/30 05:03:56;;;;;;;6.03;5.40;;;;;;;13.31;100.00;97261.38;5067689;27;20495;-63
2023/05/30 05:06:24;;;;;;;5.30;4.77;;;;;;;13.36;100.00;97265.28;5073768;27;20210;-64
2023/05/30 05:08:53;;;;;;;6.93;5.53;;;;;;;13.35;100.00;97264.47;5032058;27;20212;-63
2023/05/30 05:11:22;;;;;;;5.13;4.70;;;;;;;13.40;100.00;97267.34;5060470;27;20202;-63
2023/05/30 05:13:49;;;;;;;4.83;4.30;;;;;;;13.43;100.00;97264.31;5049558;27;20321;-62
2023/05/30 05:16:17;;;;;;;4.53;4.23;;;;;;;13.59;100.00;97267.63;5068542;28;20212;-64
2023/05/30 05:18:45;;;;;;;4.87;4.37;;;;;;;13.81;100.00;97270.94;5065805;28;20206;-60
2023/05/30 05:21:14;;;;;;;5.63;5.03;;;;;;;14.06;100.00;97267.72;5058830;27;20274;-63
2023/05/30 05:23:42;;;;;;;5.73;4.63;;;;;;;14.47;100.00;97272.00;5062394;27;20574;-62
2023/05/30 05:26:11;;;;;;;5.17;4.77;;;;;;;14.84;100.00;97268.91;5014959;27;20319;-62
2023/05/30 05:28:39;;;;;;;6.07;5.10;;;;;;;15.09;100.00;97268.19;5063323;27;20198;-62
2023/05/30 05:31:07;;;;;;;6.30;4.53;;;;;;;15.45;100.00;97269.47;5061562;27;20376;-64
2023/05/30 05:33:34;;;;;;;4.40;4.10;;;;;;;15.58;100.00;97270.47;5070345;28;20229;-62
2023/05/30 05:36:03;;;;;;;4.93;4.53;;;;;;;15.47;100.00;97266.59;5060794;28;20210;-62
2023/05/30 05:38:30;;;;;;;6.33;4.50;;;;;;;15.73;100.00;97267.50;5060187;28;20201;-63
2023/05/30 05:40:58;;;;;;;4.37;4.07;;;;;;;15.90;100.00;97276.66;5002626;28;20835;-63
2023/05/30 05:43:28;;;;;;;4.57;4.27;;;;;;;15.65;100.00;97267.72;5072199;27;20226;-64
2023/05/30 05:45:55;;;;;;;4.63;4.30;;;;;;;15.54;100.00;97255.91;5038077;28;20241;-65
2023/05/30 05:48:23;;;;;;;5.50;3.73;;;;;;;15.72;100.00;97281.84;5065145;28;20206;-64
2023/05/30 05:50:51;;;;;;;5.17;3.60;;;;;;;15.96;100.00;97276.81;5068163;28;20237;-62
2023/05/30 05:53:19;;;;;;;4.57;4.17;;;;;;;15.95;100.00;97277.84;5064652;27;20229;-62
2023/05/30 05:55:48;;;;;;;4.67;4.27;;;;;;;15.86;100.00;97274.59;5035071;27;20201;-62
2023/05/30 05:58:16;;;;;;;4.77;4.37;;;;;;;15.82;99.63;97278.72;5046591;28;20527;-64
2023/05/30 06:00:45;;;;;;;4.37;4.00;;;;;;;15.75;100.00;97266.22;5050151;28;20189;-61
2023/05/30 06:03:13;;;;;;;4.40;4.10;;;;;;;15.67;100.00;97276.34;5060297;28;20226;-65
2023/05/30 06:05:41;;;;;;;4.90;4.27;;;;;;;15.64;100.00;97272.28;5055371;28;20237;-59
2023/05/30 06:08:08;;;;;;;3.90;3.60;;;;;;;15.50;100.00;97260.84;5065282;27;20516;-65
2023/05/30 06:10:36;;;;;;;6.47;4.70;;;;;;;15.80;100.00;97278.13;5056027;28;20236;-63
2023/05/30 06:13:04;;;;;;;4.10;3.80;;;;;;;15.68;100.00;97276.16;5007332;28;20365;-62
2023/05/30 06:15:32;;;;;;;5.77;5.27;;;;;;;15.82;100.00;97279.56;5047796;28;20213;-64
2023/05/30 06:18:01;;;;;;;4.77;4.27;;;;;;;15.89;100.00;97274.19;5072735;28;20328;-64
2023/05/30 06:20:29;;;;;;;4.20;3.83;;;;;;;15.70;100.00;97284.75;5068908;28;20553;-63
2023/05/30 06:22:57;;;;;;;5.90;3.53;;;;;;;15.79;100.00;97277.31;5059946;28;20221;-66
2023/05/30 06:25:25;;;;;;;3.90;3.60;;;;;;;15.93;100.00;97282.59;5060069;28;20652;-65
2023/05/30 06:27:53;;;;;;;3.70;3.40;;;;;;;16.09;98.78;97290.06;5017575;28;20469;-63
2023/05/30 06:30:21;;;;;;;4.27;3.87;;;;;;;16.16;93.90;97287.38;5070397;28;20288;-62
2023/05/30 06:32:49;;;;;;;5.57;5.07;;;;;;;16.28;94.96;97288.28;5047472;28;20217;-61
2023/05/30 06:35:18;;;;;;;5.00;4.50;;;;;;;16.46;93.55;97290.19;5064327;28;20749;-61
2023/05/30 06:37:46;;;;;;;5.07;4.50;;;;;;;16.72;90.96;97291.00;5065021;28;20726;-60
2023/05/30 06:40:14;;;;;;;3.90;3.60;;;;;;;17.09;87.89;97292.91;5061829;28;20202;-63
2023/05/30 06:42:41;;;;;;;4.50;3.97;;;;;;;17.11;83.51;97266.75;5018743;28;20347;-63
2023/05/30 06:45:10;;;;;;;4.03;3.73;;;;;;;17.24;80.84;97287.19;5070024;28;20454;-60
2023/05/30 06:47:38;;;;;;;5.77;4.17;;;;;;;17.36;78.41;97288.06;5054429;28;20222;-61
2023/05/30 06:50:06;;;;;;;7.70;3.90;;;;;;;17.33;77.80;97290.38;5064728;28;20210;-61
2023/05/30 06:52:35;;;;;;;4.00;3.70;;;;;;;17.50;76.33;97295.91;5066177;28;20798;-61
2023/05/30 06:55:03;;;;;;;4.47;3.97;;;;;;;17.50;77.35;97298.59;5059509;28;20219;-62
2023/05/30 06:57:31;;;;;;;4.90;3.57;;;;;;;17.60;76.83;97288.16;5066157;28;21050;-61
2023/05/30 06:59:59;;;;;;;4.77;3.60;;;;;;;17.47;76.13;97293.69;5018663;28;20267;-60
2023/05/30 07:02:27;;;;;;;6.80;4.20;;;;;;;17.58;75.34;97305.50;5040544;28;20241;-62
2023/05/30 07:04:54;;;;;;;5.57;4.30;;;;;;;17.69;73.59;97299.38;5065490;28;20684;-62
2023/05/30 07:07:22;;;;;;;5.63;3.73;;;;;;;17.69;75.25;97295.91;5060473;28;20536;-61
2023/05/30 07:09:51;;;;;;;4.37;3.97;;;;;;;17.66;75.35;97291.81;5065435;28;20638;-64
2023/05/30 07:12:20;;;;;;;4.73;3.87;;;;;;;17.83;72.12;97291.19;5066554;28;20694;-65
2023/05/30 07:14:47;;;;;;;5.50;3.83;;;;;;;17.91;74.75;97286.28;5012693;28;20871;-61
2023/05/30 07:17:15;;;;;;;5.97;3.97;;;;;;;18.02;70.16;97297.31;5052819;28;20305;-64
2023/05/30 07:19:43;;;;;;;5.70;3.77;;;;;;;17.79;69.22;97285.44;5065325;28;20259;-62
2023/05/30 07:22:10;;;;;;;4.93;4.23;;;;;;;18.07;72.34;97292.09;5060711;28;20358;-61
2023/05/30 07:24:38;;;;;;;5.27;4.03;;;;;;;18.07;70.89;97284.03;5059532;28;20662;-63
2023/05/30 07:27:08;;;;;;;5.27;3.90;;;;;;;18.23;71.49;97296.78;5063023;28;20840;-63
2023/05/30 07:29:35;;;;;;;4.57;4.27;;;;;;;18.30;70.64;97298.53;5020551;28;20322;-62
2023/05/30 07:32:04;;;;;;;7.20;3.97;;;;;;;18.39;70.47;97291.78;5047197;28;20956;-64
2023/05/30 07:34:32;;;;;;;4.43;3.80;;;;;;;18.58;68.94;97297.88;5059459;28;20206;-62
2023/05/30 07:36:59;;;;;;;6.33;3.60;;;;;;;18.58;68.71;97297.88;5061206;27;20838;-59
2023/05/30 07:39:27;;;;;;;6.83;4.80;;;;;;;18.75;69.39;97289.94;5068539;27;20652;-60
2023/05/30 07:41:55;;;;;;;3.93;3.53;;;;;;;18.84;71.03;97295.75;5064993;27;20281;-61
2023/05/30 07:44:24;;;;;;;4.17;3.87;;;;;;;18.93;65.97;97288.16;5021177;28;20284;-63
2023/05/30 07:46:52;;;;;;;3.70;3.40;;;;;;;18.87;67.96;97289.09;5019954;27;20366;-62
2023/05/30 07:49:20;;;;;;;4.10;3.70;;;;;;;18.53;65.96;97284.31;5075075;27;20259;-64
2023/05/30 07:51:49;;;;;;;4.07;3.67;;;;;;;18.33;69.21;97293.53;5063721;27;20206;-62
2023/05/30 07:54:17;;;;;;;4.20;3.80;;;;;;;18.13;70.67;97285.81;5066162;27;20491;-63
2023/05/30 07:56:44;;;;;;;4.87;4.47;;;;;;;18.03;73.59;97281.00;5078676;27;20258;-61
2023/05/30 07:59:12;;;;;;;7.00;4.13;;;;;;;18.07;73.23;97276.81;5071057;27;20287;-65
2023/05/30 08:01:41;;;;;;;5.07;3.70;;;;;;;18.03;74.68;97274.81;5009121;28;20229;-61
2023/05/30 08:04:09;;;;;;;5.43;4.93;;;;;;;18.20;77.26;97278.47;5063355;27;20873;-64
2023/05/30 08:06:37;;;;;;;5.80;4.63;;;;;;;18.37;75.68;97280.44;5072869;27;20451;-61
2023/05/30 08:09:05;;;;;;;6.77;4.43;;;;;;;18.19;75.37;97278.72;5071763;28;20213;-64
2023/05/30 08:11:33;;;;;;;4.67;4.37;;;;;;;18.34;74.98;97284.44;5066922;27;20920;-61
2023/05/30 08:14:01;;;;;;;5.80;4.83;;;;;;;18.45;71.70;97284.66;5071062;27;20667;-63
2023/05/30 08:16:29;;;;;;;5.13;4.17;;;;;;;18.45;72.24;97280.13;5015312;27;20209;-62
2023/05/30 08:18:59;;;;;;;8.03;3.97;;;;;;;18.58;75.52;97286.31;5044812;27;20236;-63
2023/05/30 08:21:27;;;;;;;4.17;3.83;;;;;;;18.52;70.18;97294.25;5068280;27;20216;-67
2023/05/30 08:23:55;;;;;;;5.20;4.67;;;;;;;18.73;69.74;97286.66;5061920;27;20221;-64
2023/05/30 08:26:30;;;;;;;4.57;4.17;;;;;;;18.76;67.38;97274.63;5065595;27;20229;-64
2023/05/30 08:28:58;;;;;;;4.43;4.03;;;;;;;19.16;70.82;97290.03;5070989;27;20247;-62
2023/05/30 08:31:27;;;;;;;7.43;4.07;;;;;;;19.47;69.03;97298.69;5024320;27;20378;-61
2023/05/30 08:33:54;;;;;;;8.00;5.50;;;;;;;19.50;66.25;97292.84;5057462;27;20252;-63
2023/05/30 08:36:24;;;;;;;6.43;4.00;;;;;;;19.52;65.10;97306.84;5063705;28;20214;-61
2023/05/30 08:38:54;;;;;;;4.90;4.50;;;;;;;19.56;65.84;97301.00;5063775;28;20813;-62
2023/05/30 08:41:40;;;;;;;5.40;4.90;;;;;;;19.56;67.80;97293.78;5065001;28;20201;-61
2023/05/30 08:44:08;;;;;;;4.47;4.03;;;;;;;19.66;63.81;97295.81;5071880;27;20403;-64
2023/05/30 08:46:38;;;;;;;4.77;4.33;;;;;;;19.59;64.47;97276.34;5021273;27;20226;-63
2023/05/30 08:49:06;;;;;;;4.63;4.23;;;;;;;19.67;63.42;97292.91;5047559;27;21097;-62
2023/05/30 08:51:39;;;;;;;4.40;4.03;;;;;;;19.96;62.46;97302.84;5063881;27;20263;-64
2023/05/30 08:54:11;;;;;;;6.33;4.30;;;;;;;20.30;60.90;97302.09;5064211;27;20515;-67
2023/05/30 08:56:44;;;;;;;4.37;3.97;;;;;;;20.39;60.52;97300.63;5069363;28;20737;-61
2023/05/30 08:59:12;;;;;;;4.63;4.23;;;;;;;20.38;59.39;97280.94;5066752;27;20242;-64
2023/05/30 09:01:40;;;;;;;4.17;3.83;;;;;;;20.33;58.44;97297.00;5014825;28;20221;-63
2023/05/30 09:04:08;;;;;;;5.10;4.70;;;;;;;20.44;57.81;97300.69;5057681;27;20452;-64
2023/05/30 09:06:38;;;;;;;4.80;4.17;;;;;;;20.53;59.25;97268.81;5070153;28;20322;-60
2023/05/30 09:09:08;;;;;;;6.73;4.63;;;;;;;20.60;58.06;97301.75;5064557;27;20202;-63
2023/05/30 09:11:37;;;;;;;4.30;3.90;;;;;;;20.54;58.62;97313.50;5061994;28;20602;-61
2023/05/30 09:14:04;;;;;;;4.93;4.40;;;;;;;20.43;58.69;97287.47;5071588;27;20241;-64
2023/05/30 09:16:32;;;;;;;7.67;4.50;;;;;;;20.80;57.99;97301.25;5068338;27;21187;-63
2023/05/30 09:19:00;;;;;;;6.17;4.60;;;;;;;20.73;57.88;97283.63;4986912;28;20210;-62
2023/05/30 09:21:31;;;;;;;4.10;3.80;;;;;;;20.81;56.96;97304.75;5059518;27;20201;-62
2023/05/30 09:24:04;;;;;;;4.50;4.10;;;;;;;20.94;58.03;97301.72;5048532;28;20238;-61
2023/05/30 09:26:33;;;;;;;4.20;3.90;;;;;;;21.04;58.08;97305.63;5070394;27;20232;-62
2023/05/30 09:29:10;;;;;;;4.70;4.30;;;;;;;21.14;55.14;97307.63;5070877;28;20612;-60
2023/05/30 09:31:38;;;;;;;6.17;4.27;;;;;;;21.18;56.95;97300.69;5067491;27;20418;-62
2023/05/30 09:34:06;;;;;;;5.17;3.80;;;;;;;21.19;56.59;97305.00;5005476;27;20237;-62
2023/05/30 09:36:35;;;;;;;4.57;4.27;;;;;;;21.30;56.23;97305.97;5060123;27;20212;-59
2023/05/30 09:39:05;;;;;;;4.20;3.80;;;;;;;20.91;59.15;97282.56;5049193;27;20217;-62
2023/05/30 09:41:34;;;;;;;4.50;4.10;;;;;;;20.94;58.76;97298.22;5067766;27;20292;-62
2023/05/30 09:44:05;;;;;;;5.27;3.90;;;;;;;20.90;59.27;97305.97;5068543;28;20755;-61
2023/05/30 09:46:35;;;;;;;4.67;4.33;;;;;;;20.66;58.42;97302.66;5067289;28;20194;-64
2023/05/30 09:49:11;;;;;;;4.30;3.90;;;;;;;20.88;58.52;97296.50;5000664;27;20215;-63
2023/05/30 09:51:39;;;;;;;4.67;4.27;;;;;;;20.72;56.26;97303.53;5070835;27;20198;-62
2023/05/30 09:54:09;;;;;;;4.53;4.20;;;;;;;20.76;56.67;97305.47;5047528;27;20225;-62
2023/05/30 09:56:38;;;;;;;5.20;4.23;;;;;;;20.62;57.06;97305.00;5067507;28;20214;-62
2023/05/30 09:59:07;;;;;;;4.50;4.17;;;;;;;20.51;56.99;97301.34;5069130;27;20207;-62
2023/05/30 10:01:37;;;;;;;4.10;3.80;;;;;;;20.38;59.17;97301.69;5062490;28;20202;-63
2023/05/30 10:04:12;;;;;;;5.30;4.67;;;;;;;20.37;58.65;97298.16;5040859;27;20791;-62
2023/05/30 10:06:43;;;;;;;4.80;4.50;;;;;;;20.71;64.63;97300.03;5052841;27;20501;-64
2023/05/30 10:09:13;;;;;;;4.20;3.90;;;;;;;21.07;59.07;97295.16;5043976;28;20488;-62
2023/05/30 10:11:42;;;;;;;4.63;4.10;;;;;;;21.24;61.04;97302.38;5064047;27;20439;-63
2023/05/30 10:14:11;;;;;;;5.30;4.20;;;;;;;21.25;55.19;97309.41;5072201;27;20229;-61
2023/05/30 10:16:43;;;;;;;3.73;3.53;;;;;;;21.11;55.72;97309.78;5066359;28;20210;-65
2023/05/30 10:19:14;;;;;;;4.30;4.00;;;;;;;21.18;56.86;97303.38;5064043;28;20225;-60
2023/05/30 10:21:42;;;;;;;4.13;3.83;;;;;;;21.18;56.19;97296.09;5024641;27;20870;-63
2023/05/30 10:24:11;;;;;;;4.97;4.30;;;;;;;21.46;55.97;97307.75;5044219;28;20584;-63
2023/05/30 10:26:45;;;;;;;5.43;4.60;;;;;;;21.51;53.73;97307.81;5067965;28;20717;-61
2023/05/30 10:29:14;;;;;;;3.93;3.63;;;;;;;21.45;54.42;97303.44;5071755;28;20290;-64
2023/05/30 10:31:42;;;;;;;3.83;3.53;;;;;;;21.67;56.16;97299.94;5064661;28;20206;-66
2023/05/30 10:34:13;;;;;;;4.47;3.77;;;;;;;21.73;52.93;97306.19;5060771;28;20799;-62
2023/05/30 10:36:42;;;;;;;4.70;3.80;;;;;;;21.54;50.43;97314.59;5019091;28;20338;-63
2023/05/30 10:39:18;;;;;;;4.30;3.90;;;;;;;21.22;50.95;97282.94;5047924;28;20615;-62
2023/05/30 10:41:52;;;;;;;4.80;4.33;;;;;;;21.34;49.53;97301.69;5068793;28;20675;-60
2023/05/30 10:44:34;;;;;;;4.73;4.30;;;;;;;21.55;52.80;97297.34;5068003;28;20498;-65
2023/05/30 10:47:15;;;;;;;4.20;3.80;;;;;;;21.82;52.74;97305.50;5068596;28;20201;-63
2023/05/30 10:49:43;;;;;;;4.13;3.83;;;;;;;21.96;52.84;97296.97;5060276;28;20206;-62
2023/05/30 10:52:11;;;;;;;8.90;5.17;;;;;;;22.16;53.55;97296.38;5018545;28;20252;-62
2023/05/30 10:54:44;;;;;;;4.43;4.03;;;;;;;21.87;50.28;97298.53;5063503;28;20667;-63
2023/05/30 10:57:28;;;;;;;4.13;3.77;;;;;;;21.44;49.71;97296.41;5030718;28;20237;-64
2023/05/30 10:59:56;;;;;;;4.53;3.90;;;;;;;21.35;51.22;97277.19;5065315;28;20431;-61
2023/05/30 11:02:37;;;;;;;4.53;3.90;;;;;;;21.77;50.35;97291.97;5060355;28;21065;-63
2023/05/30 11:05:07;;;;;;;4.57;3.83;;;;;;;22.30;51.36;97287.84;5066512;28;20264;-62
2023/05/30 11:07:37;;;;;;;3.97;3.67;;;;;;;22.79;49.28;97284.97;5015882;28;21667;-63
2023/05/30 11:10:07;;;;;;;4.90;3.50;;;;;;;23.20;49.44;97280.88;5057280;28;20210;-62
2023/05/30 11:12:43;;;;;;;4.33;3.90;;;;;;;23.40;44.86;97286.41;5042668;27;20231;-66
2023/05/30 11:15:15;;;;;;;5.20;4.00;;;;;;;23.21;46.58;97283.31;5068290;27;20631;-62
2023/05/30 11:17:43;;;;;;;4.50;4.10;;;;;;;23.55;46.63;97276.69;5072883;28;20202;-64
2023/05/30 11:20:14;;;;;;;4.83;3.70;;;;;;;23.40;45.87;97278.28;5064062;27;20461;-63
2023/05/30 11:23:22;;;;;;;4.97;3.90;;;;;;;22.76;45.30;97269.31;5067269;27;20338;-63
2023/05/30 11:25:53;;;;;;;5.13;4.67;;;;;;;22.98;45.24;97268.34;5070743;27;20573;-64
2023/05/30 11:28:34;;;;;;;4.50;3.80;;;;;;;22.90;45.74;97277.75;5036356;27;21496;-61
2023/05/30 11:31:15;;;;;;;4.23;3.87;;;;;;;22.85;44.78;97269.63;5071859;27;20623;-61
2023/05/30 11:33:45;;;;;;;12.77;4.90;;;;;;;22.81;44.92;97274.72;5069689;27;20797;-62
2023/05/30 11:36:13;;;;;;;7.93;3.90;;;;;;;22.79;43.54;97263.38;5066228;27;20233;-63
2023/05/30 11:38:44;;;;;;;5.73;3.90;;;;;;;23.03;43.89;97267.53;5015027;28;20223;-65